TimeCDT,TemperatureF,Dew PointF,Humidity,Sea Level PressureIn,VisibilityMPH,Wind Direction,Wind SpeedMPH,Gust SpeedMPH,PrecipitationIn,Events,Conditions,WindDirDegrees,DateUTC
12:56 AM,30.9,21.0,67,30.24,-9999.0,WSW,9.2,-,N/A,,Unknown,250,2012-10-07 05:56:00
1:56 AM,28.9,21.9,75,30.22,-9999.0,SW,8.1,-,N/A,,Unknown,220,2012-10-07 06:56:00
2:56 AM,34.0,21.0,59,30.19,-9999.0,West,11.5,-,N/A,,Unknown,260,2012-10-07 07:56:00
3:56 AM,34.0,21.9,61,30.16,-9999.0,WSW,9.2,-,N/A,,Unknown,250,2012-10-07 08:56:00
4:56 AM,34.0,23.0,64,30.14,-9999.0,WSW,10.4,-,N/A,,Unknown,250,2012-10-07 09:56:00
5:56 AM,33.1,24.1,70,30.12,-9999.0,WSW,15.0,21.9,N/A,,Unknown,250,2012-10-07 10:56:00
6:56 AM,33.1,24.1,70,30.11,-9999.0,WSW,13.8,-,N/A,,Unknown,250,2012-10-07 11:56:00
7:56 AM,34.0,23.0,64,30.10,-9999.0,WSW,15.0,-,N/A,,Unknown,250,2012-10-07 12:56:00
8:56 AM,37.9,21.0,51,30.09,-9999.0,WSW,16.1,-,N/A,,Unknown,250,2012-10-07 13:56:00
9:56 AM,43.0,23.0,45,30.07,-9999.0,WSW,16.1,-,N/A,,Unknown,250,2012-10-07 14:56:00
10:56 AM,46.9,25.0,42,30.05,-9999.0,WSW,16.1,-,N/A,,Unknown,250,2012-10-07 15:56:00
11:56 AM,51.1,24.1,35,30.02,-9999.0,WSW,13.8,-,N/A,,Unknown,240,2012-10-07 16:56:00
12:56 PM,53.1,21.0,29,29.99,-9999.0,WSW,15.0,25.3,N/A,,Unknown,250,2012-10-07 17:56:00
1:56 PM,55.0,19.0,24,29.95,-9999.0,West,17.3,26.5,N/A,,Unknown,260,2012-10-07 18:56:00
2:56 PM,55.9,19.0,24,29.91,-9999.0,WSW,18.4,29.9,N/A,,Unknown,250,2012-10-07 19:56:00
3:56 PM,57.0,19.0,23,29.88,-9999.0,West,13.8,21.9,N/A,,Unknown,270,2012-10-07 20:56:00
4:56 PM,57.9,17.1,20,29.86,-9999.0,West,13.8,-,N/A,,Unknown,270,2012-10-07 21:56:00
5:56 PM,57.0,18.0,22,29.86,-9999.0,West,11.5,-,N/A,,Unknown,270,2012-10-07 22:56:00
6:56 PM,51.1,19.0,28,29.85,-9999.0,West,4.6,-,N/A,,Unknown,260,2012-10-07 23:56:00
7:56 PM,39.9,21.0,47,29.87,-9999.0,WSW,5.8,-,N/A,,Unknown,240,2012-10-08 00:56:00
8:56 PM,37.9,23.0,55,29.86,-9999.0,WSW,5.8,-,N/A,,Unknown,250,2012-10-08 01:56:00
9:56 PM,37.0,21.0,52,29.84,-9999.0,SW,8.1,-,N/A,,Unknown,230,2012-10-08 02:56:00
10:56 PM,36.0,21.0,55,29.82,-9999.0,SW,8.1,-,N/A,,Unknown,230,2012-10-08 03:56:00
11:56 PM,43.0,25.0,49,29.79,-9999.0,WSW,8.1,-,N/A,,Unknown,250,2012-10-08 04:56:00